sensor_id;sensor_type;location;lat;lon;timestamp;P1;durP1;ratioP1;P2;durP2;ratioP2
8361;SDS011;4218;48.326;14.304;2022-07-29T00:02:20;1.90;;;1.80;;
8361;SDS011;4218;48.326;14.304;2022-07-29T00:04:57;2.17;;;1.60;;
8361;SDS011;4218;48.326;14.304;2022-07-29T00:07:25;1.67;;;1.57;;
8361;SDS011;4218;48.326;14.304;2022-07-29T00:09:51;2.33;;;1.73;;
8361;SDS011;4218;48.326;14.304;2022-07-29T00:12:20;1.83;;;1.73;;
8361;SDS011;4218;48.326;14.304;2022-07-29T00:14:46;1.53;;;1.53;;
8361;SDS011;4218;48.326;14.304;2022-07-29T00:17:16;1.60;;;1.50;;
8361;SDS011;4218;48.326;14.304;2022-07-29T00:19:47;1.80;;;1.70;;
8361;SDS011;4218;48.326;14.304;2022-07-29T00:22:19;2.00;;;1.90;;
8361;SDS011;4218;48.326;14.304;2022-07-29T00:24:52;2.00;;;1.90;;
8361;SDS011;4218;48.326;14.304;2022-07-29T00:27:23;1.77;;;1.67;;
8361;SDS011;4218;48.326;14.304;2022-07-29T00:29:54;1.87;;;1.77;;
8361;SDS011;4218;48.326;14.304;2022-07-29T00:32:19;2.13;;;2.00;;
8361;SDS011;4218;48.326;14.304;2022-07-29T00:34:45;1.67;;;1.57;;
8361;SDS011;4218;48.326;14.304;2022-07-29T00:37:32;1.87;;;1.80;;
8361;SDS011;4218;48.326;14.304;2022-07-29T00:40:03;2.33;;;1.70;;
8361;SDS011;4218;48.326;14.304;2022-07-29T00:42:40;1.70;;;1.60;;
8361;SDS011;4218;48.326;14.304;2022-07-29T00:45:10;1.70;;;1.60;;
8361;SDS011;4218;48.326;14.304;2022-07-29T00:47:36;2.37;;;2.00;;
8361;SDS011;4218;48.326;14.304;2022-07-29T00:50:05;1.90;;;1.80;;
8361;SDS011;4218;48.326;14.304;2022-07-29T00:52:33;2.03;;;1.93;;
8361;SDS011;4218;48.326;14.304;2022-07-29T00:55:02;2.67;;;1.80;;
8361;SDS011;4218;48.326;14.304;2022-07-29T00:57:31;1.83;;;1.77;;
8361;SDS011;4218;48.326;14.304;2022-07-29T01:00:01;2.13;;;1.70;;
8361;SDS011;4218;48.326;14.304;2022-07-29T01:02:34;2.20;;;2.00;;
8361;SDS011;4218;48.326;14.304;2022-07-29T01:05:00;1.83;;;1.70;;
8361;SDS011;4218;48.326;14.304;2022-07-29T01:07:26;2.00;;;1.90;;
8361;SDS011;4218;48.326;14.304;2022-07-29T01:10:03;1.90;;;1.80;;
8361;SDS011;4218;48.326;14.304;2022-07-29T01:12:33;1.97;;;1.87;;
8361;SDS011;4218;48.326;14.304;2022-07-29T01:15:01;1.57;;;1.57;;
8361;SDS011;4218;48.326;14.304;2022-07-29T01:17:42;3.33;;;1.67;;
8361;SDS011;4218;48.326;14.304;2022-07-29T01:23:08;1.97;;;1.87;;
8361;SDS011;4218;48.326;14.304;2022-07-29T01:34:13;2.37;;;2.17;;
8361;SDS011;4218;48.326;14.304;2022-07-29T01:36:48;1.70;;;1.60;;
8361;SDS011;4218;48.326;14.304;2022-07-29T01:39:23;1.40;;;1.40;;
8361;SDS011;4218;48.326;14.304;2022-07-29T01:44:55;2.00;;;1.90;;
8361;SDS011;4218;48.326;14.304;2022-07-29T01:47:26;2.00;;;1.80;;
8361;SDS011;4218;48.326;14.304;2022-07-29T01:50:07;2.20;;;2.10;;
8361;SDS011;4218;48.326;14.304;2022-07-29T01:52:38;2.27;;;2.17;;
8361;SDS011;4218;48.326;14.304;2022-07-29T01:55:13;2.00;;;1.90;;
8361;SDS011;4218;48.326;14.304;2022-07-29T01:57:43;1.83;;;1.73;;
8361;SDS011;4218;48.326;14.304;2022-07-29T02:00:13;2.10;;;2.00;;
8361;SDS011;4218;48.326;14.304;2022-07-29T02:02:43;2.30;;;2.10;;
8361;SDS011;4218;48.326;14.304;2022-07-29T02:05:13;1.87;;;1.77;;
8361;SDS011;4218;48.326;14.304;2022-07-29T02:07:40;2.00;;;1.90;;
8361;SDS011;4218;48.326;14.304;2022-07-29T02:10:08;1.87;;;1.77;;
8361;SDS011;4218;48.326;14.304;2022-07-29T02:12:37;2.00;;;1.90;;
8361;SDS011;4218;48.326;14.304;2022-07-29T02:15:06;2.00;;;1.90;;
8361;SDS011;4218;48.326;14.304;2022-07-29T02:17:41;1.93;;;1.83;;
8361;SDS011;4218;48.326;14.304;2022-07-29T02:20:11;2.13;;;1.93;;
8361;SDS011;4218;48.326;14.304;2022-07-29T02:22:43;1.87;;;1.77;;
8361;SDS011;4218;48.326;14.304;2022-07-29T02:25:10;2.20;;;2.10;;
8361;SDS011;4218;48.326;14.304;2022-07-29T02:27:37;2.10;;;2.00;;
8361;SDS011;4218;48.326;14.304;2022-07-29T02:30:04;3.00;;;1.73;;
8361;SDS011;4218;48.326;14.304;2022-07-29T02:32:34;1.90;;;1.80;;
8361;SDS011;4218;48.326;14.304;2022-07-29T02:35:03;2.03;;;1.93;;
8361;SDS011;4218;48.326;14.304;2022-07-29T02:37:30;1.87;;;1.77;;
8361;SDS011;4218;48.326;14.304;2022-07-29T02:39:56;1.93;;;1.83;;
8361;SDS011;4218;48.326;14.304;2022-07-29T02:42:26;1.93;;;1.83;;
8361;SDS011;4218;48.326;14.304;2022-07-29T02:44:53;1.87;;;1.77;;
8361;SDS011;4218;48.326;14.304;2022-07-29T02:47:36;2.23;;;2.13;;
8361;SDS011;4218;48.326;14.304;2022-07-29T02:50:15;2.30;;;2.10;;
8361;SDS011;4218;48.326;14.304;2022-07-29T02:52:52;2.13;;;2.00;;
8361;SDS011;4218;48.326;14.304;2022-07-29T03:00:51;1.77;;;1.67;;
8361;SDS011;4218;48.326;14.304;2022-07-29T03:03:18;2.20;;;2.07;;
8361;SDS011;4218;48.326;14.304;2022-07-29T03:05:45;2.60;;;2.07;;
8361;SDS011;4218;48.326;14.304;2022-07-29T03:08:11;2.17;;;2.07;;
8361;SDS011;4218;48.326;14.304;2022-07-29T03:10:43;2.53;;;2.40;;
8361;SDS011;4218;48.326;14.304;2022-07-29T03:13:12;1.77;;;1.67;;
8361;SDS011;4218;48.326;14.304;2022-07-29T03:15:38;2.10;;;1.87;;
8361;SDS011;4218;48.326;14.304;2022-07-29T03:18:05;2.40;;;2.20;;
8361;SDS011;4218;48.326;14.304;2022-07-29T03:20:31;2.20;;;2.10;;
8361;SDS011;4218;48.326;14.304;2022-07-29T03:23:06;2.00;;;1.90;;
8361;SDS011;4218;48.326;14.304;2022-07-29T03:25:56;2.83;;;2.13;;
8361;SDS011;4218;48.326;14.304;2022-07-29T03:28:22;2.60;;;2.47;;
8361;SDS011;4218;48.326;14.304;2022-07-29T03:30:47;1.93;;;1.83;;
8361;SDS011;4218;48.326;14.304;2022-07-29T03:33:14;2.10;;;1.90;;
8361;SDS011;4218;48.326;14.304;2022-07-29T03:35:40;2.10;;;2.00;;
8361;SDS011;4218;48.326;14.304;2022-07-29T03:38:13;2.10;;;2.00;;
8361;SDS011;4218;48.326;14.304;2022-07-29T03:40:46;2.37;;;2.23;;
8361;SDS011;4218;48.326;14.304;2022-07-29T03:43:19;2.00;;;1.90;;
8361;SDS011;4218;48.326;14.304;2022-07-29T03:45:50;1.73;;;1.73;;
8361;SDS011;4218;48.326;14.304;2022-07-29T03:48:19;2.50;;;1.90;;
8361;SDS011;4218;48.326;14.304;2022-07-29T03:50:49;1.93;;;1.83;;
8361;SDS011;4218;48.326;14.304;2022-07-29T03:53:18;2.30;;;2.10;;
8361;SDS011;4218;48.326;14.304;2022-07-29T03:55:50;2.67;;;2.47;;
8361;SDS011;4218;48.326;14.304;2022-07-29T03:58:19;2.00;;;1.90;;
8361;SDS011;4218;48.326;14.304;2022-07-29T04:00:48;2.10;;;2.00;;
8361;SDS011;4218;48.326;14.304;2022-07-29T04:03:17;1.70;;;1.60;;
8361;SDS011;4218;48.326;14.304;2022-07-29T04:05:57;2.10;;;2.00;;
8361;SDS011;4218;48.326;14.304;2022-07-29T04:08:36;2.03;;;1.93;;
8361;SDS011;4218;48.326;14.304;2022-07-29T04:11:05;1.97;;;1.80;;
8361;SDS011;4218;48.326;14.304;2022-07-29T04:13:31;1.90;;;1.80;;
8361;SDS011;4218;48.326;14.304;2022-07-29T04:15:59;2.37;;;2.17;;
8361;SDS011;4218;48.326;14.304;2022-07-29T04:18:27;1.87;;;1.73;;
8361;SDS011;4218;48.326;14.304;2022-07-29T04:20:56;2.07;;;1.97;;
8361;SDS011;4218;48.326;14.304;2022-07-29T04:23:25;1.83;;;1.73;;
8361;SDS011;4218;48.326;14.304;2022-07-29T04:25:57;1.73;;;1.70;;
8361;SDS011;4218;48.326;14.304;2022-07-29T04:28:25;2.03;;;1.80;;
8361;SDS011;4218;48.326;14.304;2022-07-29T04:30:54;2.20;;;2.10;;
8361;SDS011;4218;48.326;14.304;2022-07-29T04:33:19;2.20;;;1.97;;
8361;SDS011;4218;48.326;14.304;2022-07-29T04:35:45;2.10;;;2.00;;
8361;SDS011;4218;48.326;14.304;2022-07-29T04:38:15;1.93;;;1.83;;
8361;SDS011;4218;48.326;14.304;2022-07-29T04:40:50;2.37;;;2.17;;
8361;SDS011;4218;48.326;14.304;2022-07-29T04:43:21;1.80;;;1.70;;
8361;SDS011;4218;48.326;14.304;2022-07-29T04:45:51;2.13;;;2.03;;
8361;SDS011;4218;48.326;14.304;2022-07-29T04:48:23;1.83;;;1.73;;
8361;SDS011;4218;48.326;14.304;2022-07-29T04:50:48;2.50;;;2.10;;
8361;SDS011;4218;48.326;14.304;2022-07-29T04:53:16;1.90;;;1.80;;
8361;SDS011;4218;48.326;14.304;2022-07-29T04:55:42;1.53;;;1.47;;
8361;SDS011;4218;48.326;14.304;2022-07-29T04:58:17;1.70;;;1.70;;
8361;SDS011;4218;48.326;14.304;2022-07-29T05:00:43;4.37;;;2.00;;
8361;SDS011;4218;48.326;14.304;2022-07-29T05:03:08;2.10;;;2.00;;
8361;SDS011;4218;48.326;14.304;2022-07-29T05:05:34;2.10;;;1.90;;
8361;SDS011;4218;48.326;14.304;2022-07-29T05:08:01;3.13;;;2.23;;
8361;SDS011;4218;48.326;14.304;2022-07-29T05:10:30;1.87;;;1.67;;
8361;SDS011;4218;48.326;14.304;2022-07-29T05:12:55;2.23;;;1.90;;
8361;SDS011;4218;48.326;14.304;2022-07-29T05:15:22;4.73;;;2.33;;
8361;SDS011;4218;48.326;14.304;2022-07-29T05:17:48;2.13;;;2.00;;
8361;SDS011;4218;48.326;14.304;2022-07-29T05:20:13;3.83;;;2.47;;
8361;SDS011;4218;48.326;14.304;2022-07-29T05:22:39;1.93;;;1.83;;
8361;SDS011;4218;48.326;14.304;2022-07-29T05:25:04;2.00;;;1.90;;
8361;SDS011;4218;48.326;14.304;2022-07-29T05:27:30;1.87;;;1.77;;
8361;SDS011;4218;48.326;14.304;2022-07-29T05:29:56;2.53;;;1.87;;
8361;SDS011;4218;48.326;14.304;2022-07-29T05:32:21;1.90;;;1.80;;
8361;SDS011;4218;48.326;14.304;2022-07-29T05:34:49;2.30;;;2.10;;
8361;SDS011;4218;48.326;14.304;2022-07-29T05:37:14;1.87;;;1.67;;
8361;SDS011;4218;48.326;14.304;2022-07-29T05:39:40;1.97;;;1.87;;
8361;SDS011;4218;48.326;14.304;2022-07-29T05:42:09;2.07;;;1.47;;
8361;SDS011;4218;48.326;14.304;2022-07-29T05:44:38;2.20;;;2.00;;
8361;SDS011;4218;48.326;14.304;2022-07-29T05:47:04;1.77;;;1.67;;
8361;SDS011;4218;48.326;14.304;2022-07-29T05:49:29;2.10;;;1.67;;
8361;SDS011;4218;48.326;14.304;2022-07-29T05:51:58;2.93;;;1.57;;
8361;SDS011;4218;48.326;14.304;2022-07-29T05:54:23;1.77;;;1.67;;
8361;SDS011;4218;48.326;14.304;2022-07-29T05:56:49;2.07;;;1.97;;
8361;SDS011;4218;48.326;14.304;2022-07-29T05:59:14;2.10;;;2.00;;
8361;SDS011;4218;48.326;14.304;2022-07-29T06:01:41;1.43;;;1.43;;
8361;SDS011;4218;48.326;14.304;2022-07-29T06:04:06;2.77;;;2.20;;
8361;SDS011;4218;48.326;14.304;2022-07-29T06:06:32;2.07;;;1.87;;
8361;SDS011;4218;48.326;14.304;2022-07-29T06:08:58;1.87;;;1.77;;
8361;SDS011;4218;48.326;14.304;2022-07-29T06:11:24;2.13;;;1.87;;
8361;SDS011;4218;48.326;14.304;2022-07-29T06:13:50;2.60;;;1.90;;
8361;SDS011;4218;48.326;14.304;2022-07-29T06:16:15;1.90;;;1.80;;
8361;SDS011;4218;48.326;14.304;2022-07-29T06:18:40;2.20;;;1.87;;
8361;SDS011;4218;48.326;14.304;2022-07-29T06:21:09;1.60;;;1.60;;
8361;SDS011;4218;48.326;14.304;2022-07-29T06:23:35;2.30;;;2.10;;
8361;SDS011;4218;48.326;14.304;2022-07-29T06:26:01;2.20;;;1.90;;
8361;SDS011;4218;48.326;14.304;2022-07-29T06:28:27;1.90;;;1.80;;
8361;SDS011;4218;48.326;14.304;2022-07-29T06:30:53;2.13;;;1.93;;
8361;SDS011;4218;48.326;14.304;2022-07-29T06:33:18;1.93;;;1.83;;
8361;SDS011;4218;48.326;14.304;2022-07-29T06:35:44;1.93;;;1.83;;
8361;SDS011;4218;48.326;14.304;2022-07-29T06:38:12;3.47;;;1.87;;
8361;SDS011;4218;48.326;14.304;2022-07-29T06:40:44;2.23;;;1.67;;
8361;SDS011;4218;48.326;14.304;2022-07-29T06:43:26;1.57;;;1.50;;
8361;SDS011;4218;48.326;14.304;2022-07-29T06:45:57;1.67;;;1.57;;
8361;SDS011;4218;48.326;14.304;2022-07-29T06:48:24;1.70;;;1.60;;
8361;SDS011;4218;48.326;14.304;2022-07-29T06:50:49;2.87;;;2.03;;
8361;SDS011;4218;48.326;14.304;2022-07-29T06:53:15;1.90;;;1.80;;
8361;SDS011;4218;48.326;14.304;2022-07-29T06:55:40;1.70;;;1.60;;
8361;SDS011;4218;48.326;14.304;2022-07-29T06:58:07;2.00;;;1.90;;
8361;SDS011;4218;48.326;14.304;2022-07-29T07:00:32;1.73;;;1.73;;
8361;SDS011;4218;48.326;14.304;2022-07-29T07:02:58;1.80;;;1.57;;
8361;SDS011;4218;48.326;14.304;2022-07-29T07:05:23;2.00;;;1.90;;
8361;SDS011;4218;48.326;14.304;2022-07-29T07:07:48;1.83;;;1.77;;
8361;SDS011;4218;48.326;14.304;2022-07-29T07:10:14;1.90;;;1.80;;
8361;SDS011;4218;48.326;14.304;2022-07-29T07:12:39;2.00;;;1.80;;
8361;SDS011;4218;48.326;14.304;2022-07-29T07:15:05;2.27;;;1.80;;
8361;SDS011;4218;48.326;14.304;2022-07-29T07:17:31;2.00;;;1.90;;
8361;SDS011;4218;48.326;14.304;2022-07-29T07:19:56;1.97;;;1.87;;
8361;SDS011;4218;48.326;14.304;2022-07-29T07:22:22;2.10;;;2.00;;
8361;SDS011;4218;48.326;14.304;2022-07-29T07:24:47;2.43;;;2.20;;
8361;SDS011;4218;48.326;14.304;2022-07-29T07:27:12;1.70;;;1.60;;
8361;SDS011;4218;48.326;14.304;2022-07-29T07:29:38;2.40;;;2.20;;
8361;SDS011;4218;48.326;14.304;2022-07-29T07:32:06;2.00;;;1.90;;
8361;SDS011;4218;48.326;14.304;2022-07-29T07:34:32;1.80;;;1.70;;
8361;SDS011;4218;48.326;14.304;2022-07-29T07:36:58;1.83;;;1.73;;
8361;SDS011;4218;48.326;14.304;2022-07-29T07:39:23;3.23;;;1.93;;
8361;SDS011;4218;48.326;14.304;2022-07-29T07:41:50;4.90;;;1.93;;
8361;SDS011;4218;48.326;14.304;2022-07-29T07:44:16;2.00;;;1.90;;
8361;SDS011;4218;48.326;14.304;2022-07-29T07:46:42;1.73;;;1.63;;
8361;SDS011;4218;48.326;14.304;2022-07-29T07:49:09;1.93;;;1.87;;
8361;SDS011;4218;48.326;14.304;2022-07-29T07:51:35;1.70;;;1.60;;
8361;SDS011;4218;48.326;14.304;2022-07-29T07:54:00;2.00;;;1.90;;
8361;SDS011;4218;48.326;14.304;2022-07-29T07:56:26;1.90;;;1.80;;
8361;SDS011;4218;48.326;14.304;2022-07-29T07:58:51;1.80;;;1.70;;
8361;SDS011;4218;48.326;14.304;2022-07-29T08:01:16;1.60;;;1.60;;
8361;SDS011;4218;48.326;14.304;2022-07-29T08:03:43;2.30;;;2.10;;
8361;SDS011;4218;48.326;14.304;2022-07-29T08:06:09;1.60;;;1.60;;
8361;SDS011;4218;48.326;14.304;2022-07-29T08:08:34;1.87;;;1.60;;
8361;SDS011;4218;48.326;14.304;2022-07-29T08:10:59;2.00;;;1.90;;
8361;SDS011;4218;48.326;14.304;2022-07-29T08:13:27;4.20;;;1.60;;
8361;SDS011;4218;48.326;14.304;2022-07-29T08:15:53;3.63;;;2.00;;
8361;SDS011;4218;48.326;14.304;2022-07-29T08:18:27;2.23;;;2.13;;
8361;SDS011;4218;48.326;14.304;2022-07-29T08:20:53;1.60;;;1.60;;
8361;SDS011;4218;48.326;14.304;2022-07-29T08:23:19;1.90;;;1.80;;
8361;SDS011;4218;48.326;14.304;2022-07-29T08:25:45;1.90;;;1.80;;
8361;SDS011;4218;48.326;14.304;2022-07-29T08:28:11;1.80;;;1.70;;
8361;SDS011;4218;48.326;14.304;2022-07-29T08:30:36;1.83;;;1.70;;
8361;SDS011;4218;48.326;14.304;2022-07-29T08:33:02;1.83;;;1.73;;
8361;SDS011;4218;48.326;14.304;2022-07-29T08:35:27;1.70;;;1.60;;
8361;SDS011;4218;48.326;14.304;2022-07-29T08:37:53;2.17;;;2.07;;
8361;SDS011;4218;48.326;14.304;2022-07-29T08:40:19;2.23;;;2.03;;
8361;SDS011;4218;48.326;14.304;2022-07-29T08:42:45;2.13;;;2.00;;
8361;SDS011;4218;48.326;14.304;2022-07-29T08:45:11;2.20;;;2.10;;
8361;SDS011;4218;48.326;14.304;2022-07-29T08:47:38;2.90;;;2.13;;
8361;SDS011;4218;48.326;14.304;2022-07-29T08:50:08;1.90;;;1.80;;
8361;SDS011;4218;48.326;14.304;2022-07-29T08:52:38;2.53;;;2.17;;
8361;SDS011;4218;48.326;14.304;2022-07-29T08:55:05;2.00;;;1.90;;
8361;SDS011;4218;48.326;14.304;2022-07-29T08:57:32;1.90;;;1.80;;
8361;SDS011;4218;48.326;14.304;2022-07-29T09:00:00;1.70;;;1.60;;
8361;SDS011;4218;48.326;14.304;2022-07-29T09:02:26;2.00;;;1.90;;
8361;SDS011;4218;48.326;14.304;2022-07-29T09:04:54;2.00;;;1.90;;
8361;SDS011;4218;48.326;14.304;2022-07-29T09:07:22;1.60;;;1.50;;
8361;SDS011;4218;48.326;14.304;2022-07-29T09:09:47;2.17;;;1.90;;
8361;SDS011;4218;48.326;14.304;2022-07-29T09:12:13;2.50;;;2.30;;
8361;SDS011;4218;48.326;14.304;2022-07-29T09:14:39;1.80;;;1.70;;
8361;SDS011;4218;48.326;14.304;2022-07-29T09:17:05;2.27;;;2.17;;
8361;SDS011;4218;48.326;14.304;2022-07-29T09:19:35;1.90;;;1.80;;
8361;SDS011;4218;48.326;14.304;2022-07-29T09:22:03;2.03;;;1.90;;
8361;SDS011;4218;48.326;14.304;2022-07-29T09:27:20;1.90;;;1.80;;
8361;SDS011;4218;48.326;14.304;2022-07-29T09:29:55;2.00;;;1.90;;
8361;SDS011;4218;48.326;14.304;2022-07-29T09:32:21;1.77;;;1.67;;
8361;SDS011;4218;48.326;14.304;2022-07-29T09:34:46;2.27;;;2.17;;
8361;SDS011;4218;48.326;14.304;2022-07-29T09:37:12;3.03;;;2.07;;
8361;SDS011;4218;48.326;14.304;2022-07-29T09:39:51;2.37;;;2.27;;
8361;SDS011;4218;48.326;14.304;2022-07-29T09:42:17;3.80;;;2.07;;
8361;SDS011;4218;48.326;14.304;2022-07-29T09:44:55;2.57;;;2.10;;
8361;SDS011;4218;48.326;14.304;2022-07-29T09:47:20;2.07;;;1.90;;
8361;SDS011;4218;48.326;14.304;2022-07-29T09:49:51;2.47;;;2.27;;
8361;SDS011;4218;48.326;14.304;2022-07-29T09:52:23;2.60;;;2.40;;
8361;SDS011;4218;48.326;14.304;2022-07-29T09:54:49;2.37;;;2.17;;
8361;SDS011;4218;48.326;14.304;2022-07-29T09:57:25;2.43;;;2.33;;
8361;SDS011;4218;48.326;14.304;2022-07-29T10:02:32;1.70;;;1.60;;
8361;SDS011;4218;48.326;14.304;2022-07-29T10:04:59;3.70;;;2.00;;
8361;SDS011;4218;48.326;14.304;2022-07-29T10:07:26;2.47;;;2.37;;
8361;SDS011;4218;48.326;14.304;2022-07-29T10:09:54;2.57;;;2.33;;
8361;SDS011;4218;48.326;14.304;2022-07-29T10:12:20;6.10;;;2.10;;
8361;SDS011;4218;48.326;14.304;2022-07-29T10:14:46;2.10;;;2.00;;
8361;SDS011;4218;48.326;14.304;2022-07-29T10:17:12;2.03;;;2.00;;
8361;SDS011;4218;48.326;14.304;2022-07-29T10:19:38;2.63;;;2.40;;
8361;SDS011;4218;48.326;14.304;2022-07-29T10:22:07;2.33;;;2.20;;
8361;SDS011;4218;48.326;14.304;2022-07-29T10:24:34;2.40;;;2.27;;
8361;SDS011;4218;48.326;14.304;2022-07-29T10:27:01;2.00;;;1.87;;
8361;SDS011;4218;48.326;14.304;2022-07-29T10:29:28;2.20;;;2.10;;
8361;SDS011;4218;48.326;14.304;2022-07-29T10:34:46;2.23;;;2.00;;
8361;SDS011;4218;48.326;14.304;2022-07-29T10:40:39;2.27;;;2.07;;
8361;SDS011;4218;48.326;14.304;2022-07-29T10:43:42;2.37;;;2.20;;
8361;SDS011;4218;48.326;14.304;2022-07-29T10:46:10;2.20;;;2.10;;
8361;SDS011;4218;48.326;14.304;2022-07-29T10:54:18;2.55;;;2.35;;
8361;SDS011;4218;48.326;14.304;2022-07-29T11:07:22;2.30;;;2.20;;
8361;SDS011;4218;48.326;14.304;2022-07-29T11:15:11;2.23;;;2.00;;
8361;SDS011;4218;48.326;14.304;2022-07-29T11:31:41;2.10;;;1.90;;
8361;SDS011;4218;48.326;14.304;2022-07-29T11:34:18;2.17;;;2.07;;
8361;SDS011;4218;48.326;14.304;2022-07-29T11:39:42;2.20;;;2.10;;
8361;SDS011;4218;48.326;14.304;2022-07-29T11:45:08;2.55;;;2.45;;
8361;SDS011;4218;48.326;14.304;2022-07-29T11:47:38;12.27;;;2.08;;
8361;SDS011;4218;48.326;14.304;2022-07-29T11:50:06;2.60;;;2.35;;
8361;SDS011;4218;48.326;14.304;2022-07-29T11:52:36;2.80;;;2.17;;
8361;SDS011;4218;48.326;14.304;2022-07-29T11:55:08;2.47;;;2.33;;
8361;SDS011;4218;48.326;14.304;2022-07-29T11:57:35;1.80;;;1.70;;
8361;SDS011;4218;48.326;14.304;2022-07-29T12:00:03;1.80;;;1.70;;
8361;SDS011;4218;48.326;14.304;2022-07-29T12:02:39;2.88;;;2.00;;
8361;SDS011;4218;48.326;14.304;2022-07-29T12:05:07;1.90;;;1.80;;
8361;SDS011;4218;48.326;14.304;2022-07-29T12:07:33;1.50;;;1.50;;
8361;SDS011;4218;48.326;14.304;2022-07-29T12:09:59;3.75;;;1.83;;
8361;SDS011;4218;48.326;14.304;2022-07-29T12:12:26;1.83;;;1.73;;
8361;SDS011;4218;48.326;14.304;2022-07-29T12:14:52;2.20;;;2.10;;
8361;SDS011;4218;48.326;14.304;2022-07-29T12:17:31;2.70;;;2.15;;
8361;SDS011;4218;48.326;14.304;2022-07-29T12:19:58;2.00;;;1.83;;
8361;SDS011;4218;48.326;14.304;2022-07-29T12:22:29;1.50;;;1.50;;
8361;SDS011;4218;48.326;14.304;2022-07-29T12:25:08;1.95;;;1.85;;
8361;SDS011;4218;48.326;14.304;2022-07-29T12:27:39;4.72;;;2.20;;
8361;SDS011;4218;48.326;14.304;2022-07-29T12:30:06;2.10;;;2.00;;
8361;SDS011;4218;48.326;14.304;2022-07-29T12:32:40;2.05;;;1.95;;
8361;SDS011;4218;48.326;14.304;2022-07-29T12:35:11;1.90;;;1.80;;
8361;SDS011;4218;48.326;14.304;2022-07-29T12:37:39;2.05;;;1.88;;
8361;SDS011;4218;48.326;14.304;2022-07-29T12:40:06;2.60;;;1.52;;
8361;SDS011;4218;48.326;14.304;2022-07-29T12:42:33;1.60;;;1.55;;
8361;SDS011;4218;48.326;14.304;2022-07-29T12:44:59;1.75;;;1.65;;
8361;SDS011;4218;48.326;14.304;2022-07-29T12:47:26;2.05;;;1.95;;
8361;SDS011;4218;48.326;14.304;2022-07-29T12:50:07;1.77;;;1.67;;
8361;SDS011;4218;48.326;14.304;2022-07-29T12:52:34;2.55;;;2.03;;
8361;SDS011;4218;48.326;14.304;2022-07-29T12:55:01;1.70;;;1.60;;
8361;SDS011;4218;48.326;14.304;2022-07-29T12:57:27;1.80;;;1.70;;
8361;SDS011;4218;48.326;14.304;2022-07-29T13:00:00;1.52;;;1.42;;
8361;SDS011;4218;48.326;14.304;2022-07-29T13:02:27;1.55;;;1.45;;
8361;SDS011;4218;48.326;14.304;2022-07-29T13:04:57;1.52;;;1.42;;
8361;SDS011;4218;48.326;14.304;2022-07-29T13:07:24;1.10;;;1.10;;
8361;SDS011;4218;48.326;14.304;2022-07-29T13:09:52;1.30;;;1.20;;
8361;SDS011;4218;48.326;14.304;2022-07-29T13:12:17;1.17;;;1.17;;
8361;SDS011;4218;48.326;14.304;2022-07-29T13:14:44;1.60;;;1.33;;
8361;SDS011;4218;48.326;14.304;2022-07-29T13:17:20;1.10;;;1.10;;
8361;SDS011;4218;48.326;14.304;2022-07-29T13:20:03;1.25;;;1.20;;
8361;SDS011;4218;48.326;14.304;2022-07-29T13:22:31;1.48;;;1.38;;
8361;SDS011;4218;48.326;14.304;2022-07-29T13:24:58;1.08;;;1.08;;
8361;SDS011;4218;48.326;14.304;2022-07-29T13:27:29;1.13;;;1.13;;
8361;SDS011;4218;48.326;14.304;2022-07-29T13:29:57;1.50;;;1.40;;
8361;SDS011;4218;48.326;14.304;2022-07-29T13:32:25;1.23;;;1.23;;
8361;SDS011;4218;48.326;14.304;2022-07-29T13:34:52;1.20;;;1.20;;
8361;SDS011;4218;48.326;14.304;2022-07-29T13:37:18;1.27;;;1.20;;
8361;SDS011;4218;48.326;14.304;2022-07-29T13:39:44;1.33;;;1.33;;
8361;SDS011;4218;48.326;14.304;2022-07-29T13:42:09;1.10;;;1.10;;
8361;SDS011;4218;48.326;14.304;2022-07-29T13:44:38;1.38;;;1.35;;
8361;SDS011;4218;48.326;14.304;2022-07-29T13:47:03;1.20;;;1.20;;
8361;SDS011;4218;48.326;14.304;2022-07-29T13:49:29;1.10;;;1.00;;
8361;SDS011;4218;48.326;14.304;2022-07-29T13:51:55;1.20;;;1.20;;
8361;SDS011;4218;48.326;14.304;2022-07-29T13:54:20;1.40;;;1.40;;
8361;SDS011;4218;48.326;14.304;2022-07-29T13:56:45;1.20;;;1.20;;
8361;SDS011;4218;48.326;14.304;2022-07-29T13:59:11;1.38;;;1.38;;
8361;SDS011;4218;48.326;14.304;2022-07-29T14:01:37;1.23;;;1.10;;
8361;SDS011;4218;48.326;14.304;2022-07-29T14:04:03;1.35;;;1.30;;
8361;SDS011;4218;48.326;14.304;2022-07-29T14:06:29;2.55;;;1.15;;
8361;SDS011;4218;48.326;14.304;2022-07-29T14:08:54;1.95;;;1.25;;
8361;SDS011;4218;48.326;14.304;2022-07-29T14:11:20;2.03;;;1.20;;
8361;SDS011;4218;48.326;14.304;2022-07-29T14:13:46;1.20;;;1.20;;
8361;SDS011;4218;48.326;14.304;2022-07-29T14:16:11;1.40;;;1.30;;
8361;SDS011;4218;48.326;14.304;2022-07-29T14:18:37;1.20;;;1.20;;
8361;SDS011;4218;48.326;14.304;2022-07-29T14:21:02;1.52;;;1.42;;
8361;SDS011;4218;48.326;14.304;2022-07-29T14:23:28;1.50;;;1.40;;
8361;SDS011;4218;48.326;14.304;2022-07-29T14:25:53;1.45;;;1.35;;
8361;SDS011;4218;48.326;14.304;2022-07-29T14:28:19;1.25;;;1.25;;
8361;SDS011;4218;48.326;14.304;2022-07-29T14:30:44;1.20;;;1.20;;
8361;SDS011;4218;48.326;14.304;2022-07-29T14:33:10;1.13;;;1.10;;
8361;SDS011;4218;48.326;14.304;2022-07-29T14:35:35;1.30;;;1.30;;
8361;SDS011;4218;48.326;14.304;2022-07-29T14:38:01;1.25;;;1.15;;
8361;SDS011;4218;48.326;14.304;2022-07-29T14:40:26;1.50;;;1.45;;
8361;SDS011;4218;48.326;14.304;2022-07-29T14:42:51;1.50;;;1.40;;
8361;SDS011;4218;48.326;14.304;2022-07-29T14:45:17;2.17;;;1.70;;
8361;SDS011;4218;48.326;14.304;2022-07-29T14:47:42;1.50;;;1.40;;
8361;SDS011;4218;48.326;14.304;2022-07-29T14:50:08;1.75;;;1.50;;
8361;SDS011;4218;48.326;14.304;2022-07-29T14:52:34;2.35;;;1.67;;
8361;SDS011;4218;48.326;14.304;2022-07-29T14:54:59;1.45;;;1.30;;
8361;SDS011;4218;48.326;14.304;2022-07-29T14:57:25;1.25;;;1.20;;
8361;SDS011;4218;48.326;14.304;2022-07-29T14:59:50;1.33;;;1.33;;
8361;SDS011;4218;48.326;14.304;2022-07-29T15:02:16;1.30;;;1.30;;
8361;SDS011;4218;48.326;14.304;2022-07-29T15:04:41;2.47;;;1.50;;
8361;SDS011;4218;48.326;14.304;2022-07-29T15:07:07;1.67;;;1.33;;
8361;SDS011;4218;48.326;14.304;2022-07-29T15:09:33;1.30;;;1.20;;
8361;SDS011;4218;48.326;14.304;2022-07-29T15:11:58;1.27;;;1.17;;
8361;SDS011;4218;48.326;14.304;2022-07-29T15:14:24;1.50;;;1.40;;
8361;SDS011;4218;48.326;14.304;2022-07-29T15:16:49;1.52;;;1.40;;
8361;SDS011;4218;48.326;14.304;2022-07-29T15:19:14;1.40;;;1.30;;
8361;SDS011;4218;48.326;14.304;2022-07-29T15:21:40;1.30;;;1.30;;
8361;SDS011;4218;48.326;14.304;2022-07-29T15:24:05;1.52;;;1.48;;
8361;SDS011;4218;48.326;14.304;2022-07-29T15:26:32;1.33;;;1.30;;
8361;SDS011;4218;48.326;14.304;2022-07-29T15:28:57;1.40;;;1.30;;
8361;SDS011;4218;48.326;14.304;2022-07-29T15:31:23;1.38;;;1.38;;
8361;SDS011;4218;48.326;14.304;2022-07-29T15:33:48;1.30;;;1.30;;
8361;SDS011;4218;48.326;14.304;2022-07-29T15:36:13;1.17;;;1.17;;
8361;SDS011;4218;48.326;14.304;2022-07-29T15:38:39;1.40;;;1.30;;
8361;SDS011;4218;48.326;14.304;2022-07-29T15:41:05;1.10;;;1.10;;
8361;SDS011;4218;48.326;14.304;2022-07-29T15:43:31;1.00;;;1.00;;
8361;SDS011;4218;48.326;14.304;2022-07-29T15:45:57;1.73;;;1.30;;
8361;SDS011;4218;48.326;14.304;2022-07-29T15:48:40;2.80;;;1.30;;
8361;SDS011;4218;48.326;14.304;2022-07-29T15:51:06;1.30;;;1.30;;
8361;SDS011;4218;48.326;14.304;2022-07-29T15:53:32;1.30;;;1.30;;
8361;SDS011;4218;48.326;14.304;2022-07-29T15:55:57;5.55;;;1.65;;
8361;SDS011;4218;48.326;14.304;2022-07-29T15:58:23;1.48;;;1.48;;
8361;SDS011;4218;48.326;14.304;2022-07-29T16:00:48;1.33;;;1.33;;
8361;SDS011;4218;48.326;14.304;2022-07-29T16:03:14;1.52;;;1.10;;
8361;SDS011;4218;48.326;14.304;2022-07-29T16:05:40;1.20;;;1.20;;
8361;SDS011;4218;48.326;14.304;2022-07-29T16:08:06;1.10;;;1.10;;
8361;SDS011;4218;48.326;14.304;2022-07-29T16:10:31;1.33;;;1.33;;
8361;SDS011;4218;48.326;14.304;2022-07-29T16:12:57;1.00;;;1.00;;
8361;SDS011;4218;48.326;14.304;2022-07-29T16:15:22;1.30;;;1.30;;
8361;SDS011;4218;48.326;14.304;2022-07-29T16:17:47;1.40;;;1.30;;
8361;SDS011;4218;48.326;14.304;2022-07-29T16:20:14;1.17;;;1.17;;